createdAt,value
2022-11-21T00:01:41.889Z,29.18
2022-11-21T00:07:04.170Z,29.70
2022-11-21T00:12:27.980Z,30.97
2022-11-21T00:17:50.235Z,31.07
2022-11-21T00:23:12.604Z,30.50
2022-11-21T00:28:34.842Z,28.45
2022-11-21T00:33:57.165Z,29.12
2022-11-21T00:39:19.462Z,29.65
2022-11-21T00:44:41.642Z,28.52
2022-11-21T00:50:03.916Z,27.90
2022-11-21T00:55:26.647Z,28.92
2022-11-21T01:00:48.949Z,28.30
2022-11-21T01:06:16.435Z,28.55
2022-11-21T01:11:39.980Z,29.52
2022-11-21T01:17:02.191Z,29.20
2022-11-21T01:22:24.441Z,31.42
2022-11-21T01:27:46.600Z,29.80
2022-11-21T01:33:09.306Z,30.23
2022-11-21T01:38:31.501Z,30.57
2022-11-21T01:43:54.133Z,30.52
2022-11-21T01:49:29.686Z,30.90
2022-11-21T01:54:59.683Z,31.60
2022-11-21T02:00:26.726Z,29.85
2022-11-21T02:05:51.638Z,30.75
2022-11-21T02:11:39.332Z,31.23
2022-11-21T02:17:02.807Z,30.90
2022-11-21T02:22:36.296Z,31.10
2022-11-21T02:28:02.645Z,30.35
2022-11-21T02:33:26.165Z,29.37
2022-11-21T02:38:53.462Z,30.27
2022-11-21T02:44:32.415Z,31.30
2022-11-21T02:50:23.291Z,29.07
2022-11-21T02:55:46.017Z,29.12
2022-11-21T03:01:08.243Z,30.17
2022-11-21T03:06:30.912Z,31.52
2022-11-21T03:11:53.281Z,27.93
2022-11-21T03:17:16.234Z,29.65
2022-11-21T03:22:39.084Z,29.63
2022-11-21T03:28:05.068Z,30.43
2022-11-21T03:33:27.359Z,30.82
2022-11-21T03:38:49.781Z,30.88
2022-11-21T03:44:14.394Z,33.73
2022-11-21T03:49:36.579Z,32.70
2022-11-21T03:54:58.752Z,32.15
2022-11-21T04:00:22.533Z,34.27
2022-11-21T04:05:44.745Z,35.08
2022-11-21T04:11:08.503Z,35.60
2022-11-21T04:16:30.876Z,36.73
2022-11-21T04:21:53.642Z,34.38
2022-11-21T04:27:15.842Z,37.10
2022-11-21T04:32:38.062Z,35.30
2022-11-21T04:38:00.249Z,37.80
2022-11-21T04:43:22.893Z,38.08
2022-11-21T04:48:45.139Z,39.83
2022-11-21T04:54:07.323Z,43.40
2022-11-21T04:59:29.608Z,47.62
2022-11-21T05:04:52.637Z,51.48
2022-11-21T05:10:15.109Z,47.80
2022-11-21T05:15:38.015Z,41.18
2022-11-21T05:21:00.267Z,44.63
2022-11-21T05:26:22.468Z,49.60
2022-11-21T05:31:45.148Z,40.15
2022-11-21T05:37:07.351Z,37.30
2022-11-21T05:42:47.382Z,35.90
2022-11-21T05:48:09.561Z,36.00
2022-11-21T05:53:32.925Z,34.53
2022-11-21T05:58:55.656Z,37.67
2022-11-21T06:04:20.032Z,36.95
2022-11-21T06:09:42.201Z,36.88
2022-11-21T06:15:04.372Z,38.45
2022-11-21T06:20:27.902Z,39.75
2022-11-21T06:25:50.100Z,39.73
2022-11-21T06:31:20.577Z,38.92
2022-11-21T06:36:45.003Z,40.75
2022-11-21T06:42:07.876Z,40.33
2022-11-21T06:47:30.077Z,40.83
2022-11-21T06:52:52.847Z,38.90
2022-11-21T06:58:18.423Z,40.03
2022-11-21T07:03:41.199Z,40.15
2022-11-21T07:09:31.546Z,40.63
2022-11-21T07:14:30.216Z,43.40
2022-11-21T07:19:52.757Z,42.60
2022-11-21T07:25:15.158Z,40.95
2022-11-21T07:30:37.418Z,40.90
2022-11-21T07:36:01.487Z,40.60
2022-11-21T07:41:23.707Z,41.13
2022-11-21T07:46:45.937Z,39.38
2022-11-21T07:52:08.128Z,40.92
2022-11-21T07:57:31.299Z,41.65
2022-11-21T08:02:53.582Z,42.23
2022-11-21T08:08:16.719Z,42.40
2022-11-21T08:13:38.942Z,41.08
2022-11-21T08:19:01.199Z,41.10
2022-11-21T08:24:23.547Z,41.65
2022-11-21T08:29:45.929Z,42.35
2022-11-21T08:35:08.177Z,73.47
2022-11-21T08:40:30.994Z,46.75
2022-11-21T08:45:54.018Z,41.95
2022-11-21T08:51:16.375Z,42.88
2022-11-21T08:56:39.115Z,42.98
2022-11-21T09:02:01.701Z,41.48
2022-11-21T09:07:24.115Z,40.17
2022-11-21T09:12:46.973Z,42.40
2022-11-21T09:18:10.818Z,48.98
2022-11-21T09:23:34.333Z,43.52
2022-11-21T09:28:57.580Z,40.30
2022-11-21T09:34:20.745Z,41.42
2022-11-21T09:39:43.415Z,40.07
2022-11-21T09:45:25.743Z,41.83
2022-11-21T09:50:55.422Z,41.05
2022-11-21T10:01:44.446Z,40.00
2022-11-21T10:07:28.995Z,42.67
2022-11-21T10:13:11.116Z,42.17
2022-11-21T10:18:41.333Z,41.77
2022-11-21T10:24:17.549Z,42.33
2022-11-21T10:30:03.785Z,42.23
2022-11-21T10:35:55.195Z,41.07
2022-11-21T10:41:32.298Z,42.30
2022-11-21T10:47:11.069Z,43.70
2022-11-21T10:52:38.304Z,44.53
2022-11-21T10:58:06.960Z,43.07
2022-11-21T11:03:31.134Z,31.53
2022-11-21T11:09:05.352Z,41.47
2022-11-21T11:14:38.334Z,43.10
2022-11-21T11:20:36.913Z,41.53
2022-11-21T11:26:04.201Z,40.40
2022-11-21T11:31:27.515Z,39.88
2022-11-21T11:36:58.716Z,40.08
2022-11-21T11:43:11.707Z,40.75
2022-11-21T11:48:56.288Z,38.83
2022-11-21T11:54:04.909Z,74.05
2022-11-21T11:59:40.765Z,43.40
2022-11-21T12:05:13.951Z,44.03
2022-11-21T12:10:42.595Z,45.67
2022-11-21T12:16:13.877Z,51.02
2022-11-21T12:21:36.365Z,52.53
2022-11-21T12:27:21.396Z,53.10
2022-11-21T12:33:09.885Z,51.90
2022-11-21T12:39:01.368Z,51.73
2022-11-21T12:44:48.364Z,47.55
2022-11-21T12:50:42.582Z,48.38
2022-11-21T12:56:09.229Z,49.77
2022-11-21T13:01:52.078Z,47.30
2022-11-21T13:07:16.707Z,48.03
2022-11-21T13:13:07.950Z,49.63
2022-11-21T13:24:07.739Z,47.43
2022-11-21T13:29:31.736Z,48.33
2022-11-21T13:34:55.843Z,48.37
2022-11-21T13:40:39.260Z,48.10
2022-11-21T13:46:04.336Z,50.27
2022-11-21T13:51:55.860Z,49.93
2022-11-21T13:57:32.451Z,52.95
2022-11-21T14:03:03.075Z,53.93
2022-11-21T14:14:06.840Z,54.57
2022-11-21T14:19:34.994Z,56.53
2022-11-21T14:24:59.293Z,56.90
2022-11-21T14:30:41.418Z,57.70
2022-11-21T14:36:08.296Z,58.90
2022-11-21T14:41:39.722Z,55.63
2022-11-21T14:47:26.633Z,57.33
2022-11-21T14:52:54.670Z,58.08
2022-11-21T14:58:20.180Z,55.83
2022-11-21T15:03:43.399Z,55.67
2022-11-21T15:14:39.424Z,59.03
2022-11-21T15:20:23.036Z,56.95
2022-11-21T15:31:39.994Z,55.23
2022-11-21T15:37:11.101Z,57.90
2022-11-21T15:42:53.824Z,54.73
2022-11-21T15:48:16.143Z,57.53
2022-11-21T15:53:38.998Z,58.13
2022-11-21T15:57:12.319Z,58.10
2022-11-21T15:59:03.298Z,58.90
2022-11-21T16:04:26.619Z,56.88
2022-11-21T16:09:50.207Z,56.17
2022-11-21T16:15:13.003Z,55.40
2022-11-21T16:20:35.364Z,56.07
2022-11-21T16:26:06.001Z,55.67
2022-11-21T16:31:35.592Z,55.83
2022-11-21T16:42:15.434Z,74.50
2022-11-21T16:47:41.121Z,56.02
2022-11-21T16:53:03.031Z,56.60
2022-11-21T16:58:25.364Z,56.58
2022-11-21T17:03:48.144Z,56.15
2022-11-21T17:09:12.594Z,54.70
2022-11-21T17:14:34.784Z,56.05
2022-11-21T17:19:57.267Z,58.40
2022-11-21T17:25:19.666Z,56.60
2022-11-21T17:30:44.858Z,58.00
2022-11-21T17:36:11.393Z,58.70
2022-11-21T17:41:36.258Z,59.50
2022-11-21T17:46:59.469Z,58.70
2022-11-21T17:52:23.596Z,61.15
2022-11-21T17:57:46.973Z,61.35
2022-11-21T18:03:09.491Z,61.70
2022-11-21T18:08:31.809Z,62.50
2022-11-21T18:13:56.421Z,60.50
2022-11-21T18:19:23.298Z,62.95
2022-11-21T18:24:47.006Z,63.92
2022-11-21T18:30:09.798Z,63.50
2022-11-21T18:35:32.103Z,62.83
2022-11-21T18:40:54.300Z,61.68
2022-11-21T18:46:24.636Z,65.00
2022-11-21T18:51:48.970Z,62.98
2022-11-21T18:57:11.908Z,63.10
2022-11-21T19:02:34.476Z,64.97
2022-11-21T19:07:58.483Z,63.25
2022-11-21T19:13:21.172Z,67.67
2022-11-21T19:18:55.017Z,65.10
2022-11-21T19:24:09.586Z,66.07
2022-11-21T19:29:33.778Z,68.50
2022-11-21T19:34:56.304Z,70.50
2022-11-21T19:40:19.676Z,66.97
2022-11-21T19:45:42.337Z,67.62
2022-11-21T19:51:13.511Z,66.55
2022-11-21T19:56:40.111Z,67.97
2022-11-21T20:02:02.392Z,72.90
2022-11-21T20:07:24.867Z,72.27
2022-11-21T20:12:47.809Z,77.75
2022-11-21T20:18:11.808Z,70.60
2022-11-21T20:23:34.031Z,75.03
2022-11-21T20:28:56.422Z,73.25
2022-11-21T20:34:24.074Z,74.00
2022-11-21T20:39:46.788Z,71.67
2022-11-21T20:46:06.588Z,74.00
2022-11-21T20:51:25.074Z,73.57
2022-11-21T20:55:57.125Z,73.37
2022-11-21T21:01:21.541Z,68.67
2022-11-21T21:06:43.785Z,71.20
2022-11-21T21:12:06.428Z,68.15
2022-11-21T21:17:29.050Z,80.87
2022-11-21T21:22:51.307Z,68.42
2022-11-21T21:28:13.577Z,68.07
2022-11-21T21:33:36.807Z,66.75
2022-11-21T21:39:12.947Z,65.50
2022-11-21T21:44:35.896Z,60.83
2022-11-21T21:49:58.671Z,61.35
2022-11-21T21:55:21.447Z,60.12
2022-11-21T22:00:44.117Z,61.20
2022-11-21T22:06:07.804Z,61.57
2022-11-21T22:11:38.223Z,62.78
2022-11-21T22:17:01.302Z,58.70
2022-11-21T22:22:23.496Z,59.77
2022-11-21T22:27:45.676Z,60.23
2022-11-21T22:33:07.980Z,58.87
2022-11-21T22:38:30.204Z,59.60
2022-11-21T22:43:54.472Z,57.33
2022-11-21T22:49:17.415Z,59.70
2022-11-21T22:54:39.903Z,58.05
2022-11-21T23:00:02.982Z,60.63
2022-11-21T23:05:25.365Z,61.95
2022-11-21T23:10:47.715Z,60.87
2022-11-21T23:16:10.740Z,59.75
2022-11-21T23:21:33.767Z,62.03
2022-11-21T23:26:56.032Z,64.00
2022-11-21T23:32:18.364Z,65.95
2022-11-21T23:37:40.627Z,64.07
2022-11-21T23:43:04.416Z,60.17
2022-11-21T23:48:27.576Z,61.53
2022-11-21T23:53:50.128Z,60.55
2022-11-21T23:59:12.375Z,64.20
